If you wish to contribute or participate in the discussions about articles you are invited to join SKYbrary as a registered user

 Actions

Almería International Airport

From SKYbrary Wiki

LEAM
Airport
ICAO: LEAM – IATA: LEI
Summary
Name Almería International Airport
Region Europe
Territory Spain ES.gif
Location , Andalucia
Serving Almeria
Elevation 21.336 m <br />70 ft <br />70 ft21.336 m <br />
Type medium airport
Coordinates 36° 50' 38.17" N, 2° 22' 12.35" W
Runways
Designator Length Width Surface ROPS
8/26 3200 m10,498.688 ft <br /> 45 m147.638 ft <br /> ASP no/no


METAR
Observation LEAM 172200Z AUTO VRB01KT 9999 BKN018 15/13 Q1018
Station Almeria / Aeropuerto
Date/Time 17 April 2021 22:00:00
Wind direction °
Wind speed 01 kts
Lowest cloud amount broken clouds
Temperature 15°C
Dew point 13°C
Humidity 87%
QNH 1018 hPa
Weather condition n/a